createdAt,value
2022-12-14T00:01:40.778Z,18.80
2022-12-14T00:04:08.075Z,17.92
2022-12-14T00:06:35.455Z,17.70
2022-12-14T00:09:03.837Z,18.98
2022-12-14T00:11:32.720Z,18.85
2022-12-14T00:14:01.401Z,18.85
2022-12-14T00:16:30.076Z,18.85
2022-12-14T00:18:58.152Z,17.52
2022-12-14T00:21:25.583Z,19.38
2022-12-14T00:23:53.330Z,18.42
2022-12-14T00:26:22.384Z,18.90
2022-12-14T00:28:52.299Z,18.83
2022-12-14T00:31:19.958Z,18.77
2022-12-14T00:33:47.354Z,18.90
2022-12-14T00:36:14.809Z,19.05
2022-12-14T00:38:42.361Z,17.77
2022-12-14T00:41:09.954Z,18.88
2022-12-14T00:43:37.495Z,18.33
2022-12-14T00:46:05.694Z,19.02
2022-12-14T00:48:33.445Z,19.33
2022-12-14T00:51:00.900Z,18.42
2022-12-14T00:53:28.323Z,19.05
2022-12-14T00:55:55.654Z,19.95
2022-12-14T00:58:23.851Z,18.67
2022-12-14T01:01:05.632Z,18.88
2022-12-14T01:03:33.480Z,18.80
2022-12-14T01:06:01.069Z,18.77
2022-12-14T01:08:35.332Z,18.42
2022-12-14T01:11:05.395Z,18.55
2022-12-14T01:13:32.777Z,18.92
2022-12-14T01:16:19.987Z,19.08
2022-12-14T01:18:47.352Z,18.65
2022-12-14T01:21:22.037Z,19.63
2022-12-14T01:23:52.386Z,18.85
2022-12-14T01:26:19.775Z,18.75
2022-12-14T01:28:47.508Z,19.73
2022-12-14T01:31:16.295Z,19.45
2022-12-14T01:33:44.791Z,19.85
2022-12-14T01:36:14.425Z,19.73
2022-12-14T01:38:41.870Z,19.40
2022-12-14T01:41:09.678Z,19.80
2022-12-14T01:43:53.878Z,20.23
2022-12-14T01:48:55.988Z,19.00
2022-12-14T01:51:24.129Z,19.35
2022-12-14T01:53:51.602Z,19.85
2022-12-14T01:56:18.918Z,20.25
2022-12-14T01:58:46.244Z,20.65
2022-12-14T02:01:13.642Z,21.00
2022-12-14T02:03:43.905Z,20.00
2022-12-14T02:06:14.341Z,19.60
2022-12-14T02:08:41.867Z,19.40
2022-12-14T02:11:09.215Z,20.05
2022-12-14T02:13:38.875Z,19.55
2022-12-14T02:16:06.569Z,18.98
2022-12-14T02:18:34.059Z,20.25
2022-12-14T02:21:21.855Z,19.65
2022-12-14T02:24:14.309Z,19.88
2022-12-14T02:27:04.546Z,20.17
2022-12-14T02:29:52.817Z,19.33
2022-12-14T02:32:42.439Z,19.80
2022-12-14T02:35:15.549Z,19.08
2022-12-14T02:37:54.313Z,20.77
2022-12-14T02:40:25.004Z,20.35
2022-12-14T02:43:01.083Z,20.63
2022-12-14T02:45:51.842Z,19.83
2022-12-14T02:48:24.785Z,20.13
2022-12-14T02:50:52.065Z,19.90
2022-12-14T02:53:20.928Z,21.50
2022-12-14T02:55:54.541Z,20.73
2022-12-14T02:58:28.101Z,19.02
2022-12-14T03:00:55.785Z,19.92
2022-12-14T03:03:23.219Z,19.65
2022-12-14T03:06:02.274Z,19.55
2022-12-14T03:08:31.791Z,20.10
2022-12-14T03:11:01.254Z,19.90
2022-12-14T03:13:32.653Z,20.23
2022-12-14T03:16:01.389Z,20.13
2022-12-14T03:18:30.817Z,20.52
2022-12-14T03:20:58.099Z,22.08
2022-12-14T03:23:29.065Z,21.08
2022-12-14T03:26:02.613Z,22.65
2022-12-14T03:28:36.967Z,21.08
2022-12-14T03:31:09.197Z,19.38
2022-12-14T03:33:36.864Z,20.70
2022-12-14T03:36:13.241Z,19.67
2022-12-14T03:38:44.855Z,20.70
2022-12-14T03:41:18.711Z,20.35
2022-12-14T03:46:32.301Z,20.88
2022-12-14T03:49:22.665Z,19.70
2022-12-14T03:52:02.796Z,20.02
2022-12-14T03:54:45.236Z,19.80
2022-12-14T03:57:12.580Z,20.95
2022-12-14T03:59:43.173Z,21.58
2022-12-14T04:02:12.725Z,20.98
2022-12-14T04:04:47.398Z,20.48
2022-12-14T04:07:20.539Z,20.42
2022-12-14T04:09:59.569Z,20.60
2022-12-14T04:12:51.831Z,21.48
2022-12-14T04:15:57.395Z,21.02
2022-12-14T04:18:48.186Z,19.75
2022-12-14T04:21:18.702Z,20.83
2022-12-14T04:24:10.436Z,20.35
2022-12-14T04:26:43.980Z,20.67
2022-12-14T04:29:33.745Z,21.23
2022-12-14T04:32:22.188Z,21.33
2022-12-14T04:34:52.119Z,21.05
2022-12-14T04:37:20.610Z,21.50
2022-12-14T04:40:08.549Z,21.85
2022-12-14T04:42:40.432Z,21.58
2022-12-14T04:45:20.862Z,21.58
2022-12-14T04:48:32.291Z,20.48
2022-12-14T04:51:18.349Z,20.98
2022-12-14T04:53:46.190Z,20.92
2022-12-14T04:56:18.823Z,20.67
2022-12-14T04:58:46.239Z,21.75
2022-12-14T05:01:16.716Z,21.25
2022-12-14T05:04:12.590Z,21.60
2022-12-14T05:06:43.160Z,22.45
2022-12-14T05:09:25.402Z,21.90
2022-12-14T05:12:28.458Z,21.35
2022-12-14T05:15:07.203Z,21.65
2022-12-14T05:17:36.493Z,21.60
2022-12-14T05:20:04.279Z,20.83
2022-12-14T05:22:31.575Z,21.77
2022-12-14T05:24:58.873Z,21.48
2022-12-14T05:27:26.191Z,20.48
2022-12-14T05:29:53.550Z,20.42
2022-12-14T05:32:20.847Z,21.23
2022-12-14T05:34:48.275Z,22.45
2022-12-14T05:37:18.457Z,21.65
2022-12-14T05:39:46.077Z,21.63
2022-12-14T05:42:13.362Z,21.55
2022-12-14T05:44:40.639Z,21.38
2022-12-14T05:47:08.042Z,21.55
2022-12-14T05:49:35.309Z,21.77
2022-12-14T05:52:02.655Z,22.63
2022-12-14T05:54:30.053Z,21.27
2022-12-14T05:56:57.439Z,21.02
2022-12-14T05:59:24.830Z,22.08
2022-12-14T06:01:52.262Z,22.50
2022-12-14T06:04:19.739Z,21.30
2022-12-14T06:06:47.139Z,20.90
2022-12-14T06:09:15.975Z,20.52
2022-12-14T06:11:43.484Z,21.75
2022-12-14T06:14:11.044Z,22.55
2022-12-14T06:16:40.618Z,22.25
2022-12-14T06:19:08.010Z,21.40
2022-12-14T06:21:37.892Z,21.50
2022-12-14T06:24:05.634Z,21.73
2022-12-14T06:26:34.002Z,21.05
2022-12-14T06:29:01.608Z,22.02
2022-12-14T06:31:30.761Z,22.25
2022-12-14T06:33:59.401Z,22.25
2022-12-14T06:36:29.170Z,22.23
2022-12-14T06:38:57.094Z,23.25
2022-12-14T06:41:24.671Z,21.80
2022-12-14T06:43:52.157Z,22.88
2022-12-14T06:46:23.159Z,22.77
2022-12-14T06:48:51.391Z,22.30
2022-12-14T06:51:19.259Z,22.42
2022-12-14T06:53:46.727Z,24.45
2022-12-14T06:56:15.531Z,24.35
2022-12-14T06:58:43.262Z,23.50
2022-12-14T07:01:13.471Z,23.10
2022-12-14T07:03:42.223Z,24.25
2022-12-14T07:06:10.311Z,24.17
2022-12-14T07:08:38.763Z,25.08
2022-12-14T07:11:15.212Z,24.05
2022-12-14T07:13:42.643Z,23.50
2022-12-14T07:16:13.782Z,23.67
2022-12-14T07:18:41.163Z,23.63
2022-12-14T07:21:09.862Z,23.85
2022-12-14T07:23:37.878Z,25.33
2022-12-14T07:26:14.273Z,24.35
2022-12-14T07:28:41.917Z,24.35
2022-12-14T07:31:14.047Z,24.83
2022-12-14T07:33:41.465Z,24.48
2022-12-14T07:36:16.304Z,25.70
2022-12-14T07:38:45.219Z,24.63
2022-12-14T07:41:22.664Z,24.30
2022-12-14T07:43:51.354Z,25.65
2022-12-14T07:46:24.413Z,25.63
2022-12-14T07:48:56.056Z,25.40
2022-12-14T07:51:25.344Z,24.75
2022-12-14T07:53:56.266Z,23.45
2022-12-14T07:56:28.808Z,24.38
2022-12-14T07:58:56.583Z,23.13
2022-12-14T08:01:30.927Z,23.23
2022-12-14T08:04:09.036Z,23.17
2022-12-14T08:06:38.817Z,24.92
2022-12-14T08:09:06.867Z,25.77
2022-12-14T08:11:34.297Z,24.38
2022-12-14T08:14:03.472Z,25.45
2022-12-14T08:16:31.018Z,25.38
2022-12-14T08:18:58.645Z,26.05
2022-12-14T08:21:26.382Z,23.58
2022-12-14T08:23:54.544Z,24.90
2022-12-14T08:26:22.100Z,25.00
2022-12-14T08:28:49.379Z,25.48
2022-12-14T08:31:21.135Z,23.98
2022-12-14T08:33:48.700Z,24.58
2022-12-14T08:36:21.200Z,22.85
2022-12-14T08:38:59.133Z,23.48
2022-12-14T08:41:26.946Z,24.20
2022-12-14T08:43:56.376Z,25.00
2022-12-14T08:46:24.240Z,23.85
2022-12-14T08:48:52.640Z,24.50
2022-12-14T08:51:20.016Z,23.98
2022-12-14T08:53:50.127Z,24.77
2022-12-14T08:56:20.094Z,24.70
2022-12-14T08:58:47.804Z,24.85
2022-12-14T09:01:32.139Z,24.05
2022-12-14T09:04:05.093Z,24.83
2022-12-14T09:06:33.857Z,25.75
2022-12-14T09:09:01.406Z,26.05
2022-12-14T09:11:29.226Z,25.77
2022-12-14T09:13:56.809Z,25.83
2022-12-14T09:16:26.313Z,25.80
2022-12-14T09:18:53.777Z,25.92
2022-12-14T09:21:21.418Z,24.08
2022-12-14T09:23:52.564Z,24.90
2022-12-14T09:26:23.843Z,24.02
2022-12-14T09:28:55.362Z,23.67
2022-12-14T09:31:24.463Z,24.65
2022-12-14T09:33:51.920Z,24.58
2022-12-14T09:36:20.978Z,26.00
2022-12-14T09:38:52.252Z,25.30
2022-12-14T09:41:30.216Z,25.73
2022-12-14T09:44:03.872Z,25.27
2022-12-14T09:46:31.250Z,25.23
2022-12-14T09:48:58.648Z,24.60
2022-12-14T09:51:30.601Z,24.85
2022-12-14T09:54:06.367Z,24.50
2022-12-14T09:56:33.961Z,26.02
2022-12-14T09:59:02.055Z,25.13
2022-12-14T10:01:35.690Z,26.33
2022-12-14T10:04:24.443Z,25.27
2022-12-14T10:06:55.155Z,24.67
2022-12-14T10:09:52.887Z,26.20
2022-12-14T10:12:57.903Z,25.85
2022-12-14T10:18:01.952Z,23.80
2022-12-14T10:20:54.295Z,25.63
2022-12-14T10:23:23.534Z,26.13
2022-12-14T10:26:07.702Z,26.38
2022-12-14T10:28:56.380Z,26.60
2022-12-14T10:32:09.326Z,26.92
2022-12-14T10:34:39.474Z,25.50
2022-12-14T10:37:20.510Z,24.88
2022-12-14T10:39:51.037Z,24.30
2022-12-14T10:42:33.513Z,25.33
2022-12-14T10:48:19.540Z,24.95
2022-12-14T10:50:50.007Z,23.90
2022-12-14T10:53:19.405Z,24.95
2022-12-14T10:55:46.744Z,24.27
2022-12-14T10:58:14.066Z,25.23
2022-12-14T11:00:42.054Z,24.58
2022-12-14T11:03:14.022Z,25.85
2022-12-14T11:05:46.374Z,25.40
2022-12-14T11:08:39.710Z,26.67
2022-12-14T11:11:19.374Z,27.45
2022-12-14T11:13:51.784Z,27.90
2022-12-14T11:16:28.832Z,29.65
2022-12-14T11:19:01.656Z,28.65
2022-12-14T11:21:36.664Z,27.00
2022-12-14T11:24:04.473Z,25.13
2022-12-14T11:26:34.596Z,23.77
2022-12-14T11:29:02.849Z,24.50
2022-12-14T11:31:31.062Z,25.48
2022-12-14T11:33:58.986Z,26.15
2022-12-14T11:36:39.017Z,26.08
2022-12-14T11:39:13.088Z,25.40
2022-12-14T11:44:17.310Z,23.77
2022-12-14T11:47:02.523Z,22.88
2022-12-14T11:49:39.140Z,29.30
2022-12-14T11:52:09.669Z,25.02
2022-12-14T11:54:54.252Z,25.02
2022-12-14T11:57:25.225Z,23.65
2022-12-14T11:59:54.822Z,24.67
2022-12-14T12:02:27.149Z,25.08
2022-12-14T12:04:58.890Z,24.17
2022-12-14T12:07:34.291Z,24.52
2022-12-14T12:10:13.817Z,24.65
2022-12-14T12:13:16.622Z,23.58
2022-12-14T12:15:50.731Z,23.52
2022-12-14T12:21:34.708Z,23.40
2022-12-14T12:24:06.539Z,24.92
2022-12-14T12:26:40.021Z,24.70
2022-12-14T12:29:19.792Z,25.33
2022-12-14T12:32:25.497Z,24.27
2022-12-14T12:35:12.033Z,26.52
2022-12-14T12:37:55.253Z,25.13
2022-12-14T12:40:34.645Z,24.80
2022-12-14T12:43:15.428Z,25.90
2022-12-14T12:45:52.529Z,24.58
2022-12-14T12:48:49.130Z,26.27
2022-12-14T12:51:22.703Z,29.23
2022-12-14T12:53:56.068Z,26.02
2022-12-14T12:56:27.177Z,25.45
2022-12-14T12:58:54.487Z,25.50
2022-12-14T13:01:42.528Z,25.75
2022-12-14T13:04:20.336Z,26.45
2022-12-14T13:06:51.525Z,24.95
2022-12-14T13:09:42.997Z,24.55
2022-12-14T13:12:37.442Z,23.70
2022-12-14T13:15:13.334Z,22.70
2022-12-14T13:17:44.364Z,23.60
2022-12-14T13:20:24.790Z,22.90
2022-12-14T13:22:52.123Z,23.17
2022-12-14T13:25:34.440Z,24.05
2022-12-14T13:28:04.506Z,23.25
2022-12-14T13:30:39.585Z,24.63
2022-12-14T13:33:25.368Z,23.33
2022-12-14T13:36:18.713Z,23.90
2022-12-14T13:39:07.974Z,24.95
2022-12-14T13:41:59.901Z,23.45
2022-12-14T13:44:44.989Z,24.02
2022-12-14T13:47:15.322Z,24.50
2022-12-14T13:50:18.518Z,24.67
2022-12-14T13:52:44.633Z,24.00
2022-12-14T13:55:49.970Z,23.52
2022-12-14T13:58:20.416Z,23.30
2022-12-14T14:00:53.429Z,24.83
2022-12-14T14:03:36.178Z,26.10
2022-12-14T14:06:12.495Z,24.92
2022-12-14T14:08:42.570Z,24.38
2022-12-14T14:11:36.798Z,24.55
2022-12-14T14:14:31.271Z,24.65
2022-12-14T14:17:00.609Z,24.20
2022-12-14T14:19:28.335Z,23.85
2022-12-14T14:24:57.947Z,26.42
2022-12-14T14:27:37.379Z,26.25
2022-12-14T14:30:24.226Z,25.02
2022-12-14T14:32:54.050Z,24.08
2022-12-14T14:35:25.897Z,25.75
2022-12-14T14:38:19.446Z,27.35
2022-12-14T14:41:15.515Z,29.05
2022-12-14T14:43:37.523Z,27.55
2022-12-14T14:46:06.141Z,28.70
2022-12-14T14:48:35.749Z,28.20
2022-12-14T14:51:11.794Z,27.63
2022-12-14T14:53:39.301Z,26.38
2022-12-14T14:56:29.628Z,26.20
2022-12-14T14:59:22.588Z,27.85
2022-12-14T15:01:50.524Z,28.27
2022-12-14T15:04:23.864Z,28.10
2022-12-14T15:06:57.236Z,20.13
2022-12-14T15:09:29.866Z,28.77
2022-12-14T15:11:59.123Z,26.67
2022-12-14T15:14:48.503Z,27.33
2022-12-14T15:17:19.305Z,29.40
2022-12-14T15:19:56.269Z,28.02
2022-12-14T15:22:27.535Z,29.55
2022-12-14T15:24:56.258Z,29.02
2022-12-14T15:27:27.640Z,27.38
2022-12-14T15:30:15.923Z,30.85
2022-12-14T15:32:52.628Z,28.17
2022-12-14T15:35:26.753Z,29.00
2022-12-14T15:38:00.193Z,29.30
2022-12-14T15:40:30.452Z,32.08
2022-12-14T15:42:59.855Z,29.48
2022-12-14T15:45:30.180Z,30.20
2022-12-14T15:48:15.507Z,75.63
2022-12-14T15:50:48.572Z,37.97
2022-12-14T15:53:31.881Z,32.83
2022-12-14T15:56:04.202Z,34.57
2022-12-14T15:58:38.877Z,31.40
2022-12-14T16:01:39.161Z,29.63
2022-12-14T16:04:09.973Z,29.83
2022-12-14T16:06:49.487Z,29.67
2022-12-14T16:09:24.365Z,30.80
2022-12-14T16:12:09.926Z,28.80
2022-12-14T16:14:46.067Z,29.45
2022-12-14T16:17:15.782Z,29.73
2022-12-14T16:19:58.586Z,28.00
2022-12-14T16:22:30.826Z,39.53
2022-12-14T16:25:04.359Z,31.13
2022-12-14T16:27:31.704Z,28.70
2022-12-14T16:30:48.480Z,27.92
2022-12-14T16:33:17.906Z,29.23
2022-12-14T16:35:46.231Z,27.17
2022-12-14T16:38:17.588Z,27.73
2022-12-14T16:40:48.079Z,27.95
2022-12-14T16:43:33.865Z,26.80
2022-12-14T16:46:04.605Z,28.15
2022-12-14T16:48:32.853Z,28.27
2022-12-14T16:51:18.755Z,27.33
2022-12-14T16:54:05.134Z,27.83
2022-12-14T16:56:34.297Z,29.33
2022-12-14T16:59:06.378Z,26.90
2022-12-14T17:01:43.888Z,26.58
2022-12-14T17:04:11.616Z,29.02
2022-12-14T17:06:52.131Z,26.65
2022-12-14T17:09:27.888Z,27.02
2022-12-14T17:11:57.944Z,27.52
2022-12-14T17:14:25.260Z,27.45
2022-12-14T17:16:59.684Z,26.83
2022-12-14T17:19:35.112Z,27.50
2022-12-14T17:22:04.039Z,28.38
2022-12-14T17:24:31.361Z,27.52
2022-12-14T17:26:58.697Z,28.52
2022-12-14T17:29:27.833Z,26.73
2022-12-14T17:31:57.743Z,27.55
2022-12-14T17:34:25.199Z,27.48
2022-12-14T17:36:52.591Z,26.42
2022-12-14T17:39:20.519Z,27.42
2022-12-14T17:41:47.913Z,26.25
2022-12-14T17:44:18.107Z,26.67
2022-12-14T17:46:48.722Z,27.00
2022-12-14T17:49:16.445Z,28.55
2022-12-14T17:51:45.719Z,26.05
2022-12-14T17:54:17.837Z,26.15
2022-12-14T17:56:45.658Z,25.98
2022-12-14T17:59:13.323Z,25.88
2022-12-14T18:01:40.857Z,26.92
2022-12-14T18:04:08.521Z,25.33
2022-12-14T18:06:36.004Z,27.63
2022-12-14T18:09:05.560Z,25.90
2022-12-14T18:11:32.939Z,26.65
2022-12-14T18:14:00.443Z,26.45
2022-12-14T18:16:29.161Z,25.77
2022-12-14T18:18:58.056Z,27.33
2022-12-14T18:21:28.054Z,26.33
2022-12-14T18:23:55.639Z,27.85
2022-12-14T18:26:24.232Z,26.73
2022-12-14T18:28:53.667Z,26.40
2022-12-14T18:31:26.890Z,27.02
2022-12-14T18:33:54.295Z,26.80
2022-12-14T18:36:22.501Z,26.92
2022-12-14T18:38:50.028Z,26.88
2022-12-14T18:41:22.010Z,27.33
2022-12-14T18:43:49.570Z,27.08
2022-12-14T18:46:17.095Z,27.02
2022-12-14T18:48:45.012Z,27.58
2022-12-14T18:51:23.625Z,27.23
2022-12-14T18:53:51.649Z,27.85
2022-12-14T18:56:19.075Z,26.50
2022-12-14T18:58:47.525Z,25.55
2022-12-14T19:01:16.498Z,23.98
2022-12-14T19:03:44.706Z,24.25
2022-12-14T19:06:43.123Z,23.05
2022-12-14T19:09:00.585Z,21.27
2022-12-14T19:11:30.707Z,21.45
2022-12-14T19:13:58.218Z,21.45
2022-12-14T19:16:25.778Z,20.42
2022-12-14T19:18:53.153Z,21.25
2022-12-14T19:21:20.504Z,20.42
2022-12-14T19:23:47.793Z,20.35
2022-12-14T19:26:15.133Z,19.65
2022-12-14T19:28:42.635Z,20.23
2022-12-14T19:31:10.947Z,21.35
2022-12-14T19:33:38.285Z,21.40
2022-12-14T19:36:06.902Z,20.25
2022-12-14T19:38:37.424Z,19.75
2022-12-14T19:41:10.340Z,19.75
2022-12-14T19:43:37.754Z,21.13
2022-12-14T19:46:08.795Z,20.05
2022-12-14T19:48:36.254Z,20.55
2022-12-14T19:51:07.809Z,19.30
2022-12-14T19:53:35.555Z,19.25
2022-12-14T19:56:03.539Z,19.50
2022-12-14T19:58:31.081Z,18.70
2022-12-14T20:00:58.354Z,19.38
2022-12-14T20:03:25.921Z,18.85
2022-12-14T20:06:01.035Z,18.05
2022-12-14T20:08:29.247Z,17.35
2022-12-14T20:10:56.732Z,17.63
2022-12-14T20:13:25.112Z,17.05
2022-12-14T20:15:53.957Z,15.88
2022-12-14T20:18:21.742Z,16.77
2022-12-14T20:20:50.083Z,17.00
2022-12-14T20:23:21.579Z,16.55
2022-12-14T20:25:49.231Z,17.00
2022-12-14T20:28:16.558Z,15.52
2022-12-14T20:30:44.572Z,16.73
2022-12-14T20:33:12.072Z,15.90
2022-12-14T20:35:39.386Z,16.38
2022-12-14T20:38:06.825Z,16.58
2022-12-14T20:40:38.399Z,15.98
2022-12-14T20:43:07.216Z,15.07
2022-12-14T20:45:41.462Z,14.82
2022-12-14T20:48:08.953Z,15.25
2022-12-14T20:50:38.021Z,16.10
2022-12-14T20:53:05.483Z,14.98
2022-12-14T20:55:33.314Z,16.10
2022-12-14T20:58:00.819Z,15.10
2022-12-14T21:00:28.565Z,15.90
2022-12-14T21:02:56.094Z,15.38
2022-12-14T21:05:23.547Z,15.27
2022-12-14T21:07:51.997Z,15.45
2022-12-14T21:10:19.359Z,15.52
2022-12-14T21:12:49.671Z,16.45
2022-12-14T21:15:17.126Z,14.60
2022-12-14T21:17:44.748Z,15.07
2022-12-14T21:20:12.691Z,15.50
2022-12-14T21:22:40.147Z,16.00
2022-12-14T21:25:08.054Z,14.80
2022-12-14T21:27:38.813Z,15.07
2022-12-14T21:30:08.395Z,15.88
2022-12-14T21:32:36.736Z,15.00
2022-12-14T21:35:04.525Z,14.45
2022-12-14T21:37:31.901Z,16.05
2022-12-14T21:40:00.137Z,14.70
2022-12-14T21:42:27.563Z,15.18
2022-12-14T21:44:55.405Z,16.23
2022-12-14T21:47:24.759Z,16.10
2022-12-14T21:49:52.148Z,15.50
2022-12-14T21:52:21.600Z,15.07
2022-12-14T21:54:49.128Z,15.20
2022-12-14T21:57:40.169Z,14.57
2022-12-14T22:00:08.509Z,15.73
2022-12-14T22:02:42.432Z,15.32
2022-12-14T22:05:10.515Z,15.80
2022-12-14T22:07:37.884Z,16.08
2022-12-14T22:10:05.743Z,16.77
2022-12-14T22:12:33.032Z,15.60
2022-12-14T22:15:00.533Z,16.35
2022-12-14T22:17:27.813Z,16.48
2022-12-14T22:19:55.397Z,16.48
2022-12-14T22:22:22.851Z,16.75
2022-12-14T22:24:51.248Z,17.35
2022-12-14T22:27:18.937Z,16.65
2022-12-14T22:29:46.324Z,17.15
2022-12-14T22:32:14.054Z,17.75
2022-12-14T22:34:41.437Z,16.83
2022-12-14T22:37:08.902Z,17.23
2022-12-14T22:39:36.224Z,17.42
2022-12-14T22:42:03.680Z,17.58
2022-12-14T22:44:30.965Z,17.67
2022-12-14T22:46:58.395Z,18.40
2022-12-14T22:49:25.680Z,19.83
2022-12-14T22:51:53.197Z,18.75
2022-12-14T22:54:25.060Z,19.13
2022-12-14T22:57:02.364Z,21.20
2022-12-14T22:59:43.776Z,20.52
2022-12-14T23:02:11.763Z,21.00
2022-12-14T23:04:39.258Z,19.92
2022-12-14T23:07:06.586Z,20.35
2022-12-14T23:09:52.422Z,19.83
2022-12-14T23:12:38.157Z,20.60
2022-12-14T23:15:24.495Z,21.33
2022-12-14T23:18:13.784Z,21.52
2022-12-14T23:20:59.897Z,21.02
2022-12-14T23:23:45.693Z,20.80
2022-12-14T23:26:31.260Z,21.63
2022-12-14T23:29:17.021Z,21.02
2022-12-14T23:32:02.898Z,20.25
2022-12-14T23:34:48.471Z,19.60
2022-12-14T23:37:34.742Z,19.20
2022-12-14T23:40:20.535Z,19.48
2022-12-14T23:43:06.437Z,20.30
2022-12-14T23:45:52.325Z,21.60
2022-12-14T23:48:38.160Z,23.38
2022-12-14T23:51:24.458Z,24.73
2022-12-14T23:54:10.296Z,25.77
2022-12-14T23:56:56.117Z,24.35
2022-12-14T23:59:41.985Z,25.25
